Time;durP1;ratioP1;P1;durP2;ratioP2;P2;SDS_P1;SDS_P2;PMS_P1;PMS_P2;Temp;Humidity;BMP_temperature;BMP_pressure;BME280_temperature;BME280_humidity;BME280_pressure;Samples;Min_cycle;Max_cycle;Signal;HPM_P1;HPM_P2
2021/09/17 00:00:28;;;;;;;52.05;32.55;;;;;;;14.80;86.95;101822.03;5009499;28;20045;-79
2021/09/17 00:02:54;;;;;;;49.58;31.85;;;;;;;14.89;86.24;101811.94;5008126;28;20076;-79
2021/09/17 00:05:20;;;;;;;47.38;31.15;;;;;;;14.98;86.16;101802.78;5002301;28;20061;-79
2021/09/17 00:07:45;;;;;;;53.95;31.38;;;;;;;14.91;86.23;101809.25;4991887;28;20108;-79
2021/09/17 00:10:12;;;;;;;48.13;30.98;;;;;;;14.96;86.32;101807.25;5006337;28;20060;-79
2021/09/17 00:12:38;;;;;;;49.50;31.70;;;;;;;14.88;86.58;101814.63;4984225;28;20369;-79
2021/09/17 00:15:04;;;;;;;44.45;30.42;;;;;;;14.91;86.16;101811.88;4990760;28;20030;-80
2021/09/17 00:17:30;;;;;;;51.05;32.25;;;;;;;14.92;86.30;101811.81;4982253;28;20268;-79
2021/09/17 00:19:55;;;;;;;51.95;31.38;;;;;;;14.96;86.32;101808.13;4989844;28;20057;-79
2021/09/17 00:22:21;;;;;;;50.47;31.15;;;;;;;14.98;86.06;101805.41;5009299;28;20038;-79
2021/09/17 00:24:46;;;;;;;49.60;30.60;;;;;;;15.00;85.83;101806.19;5008393;28;20850;-79
2021/09/17 00:27:12;;;;;;;47.13;31.38;;;;;;;14.96;86.15;101807.25;4988652;28;20097;-80
2021/09/17 00:29:37;;;;;;;53.70;32.47;;;;;;;15.04;86.32;101804.28;4988907;28;20037;-79
2021/09/17 00:32:03;;;;;;;48.42;32.08;;;;;;;15.05;86.90;101798.09;4989327;28;20037;-79
2021/09/17 00:34:29;;;;;;;49.10;31.15;;;;;;;15.10;86.77;101798.75;5008188;28;20044;-80
2021/09/17 00:36:55;;;;;;;52.42;31.40;;;;;;;15.01;87.28;101794.75;5008248;28;20048;-80
2021/09/17 00:39:20;;;;;;;42.58;29.20;;;;;;;15.06;87.46;101798.03;5022925;28;20046;-79
2021/09/17 00:41:46;;;;;;;44.83;29.90;;;;;;;15.03;87.48;101795.53;5024350;28;20029;-79
2021/09/17 00:44:11;;;;;;;43.00;28.80;;;;;;;14.98;88.17;101795.72;5042009;28;20040;-79
2021/09/17 00:46:37;;;;;;;42.20;27.92;;;;;;;15.06;87.39;101792.75;5022223;28;20276;-80
2021/09/17 00:49:03;;;;;;;43.05;29.08;;;;;;;15.25;86.49;101791.94;4989270;28;20026;-79
2021/09/17 00:51:29;;;;;;;39.88;27.80;;;;;;;15.19;86.68;101790.44;4991271;28;20324;-79
2021/09/17 00:53:55;;;;;;;41.75;28.45;;;;;;;15.19;86.57;101786.91;5003773;28;20044;-79
2021/09/17 00:56:20;;;;;;;48.45;28.63;;;;;;;15.12;86.83;101786.34;4988704;28;20068;-79
2021/09/17 00:58:46;;;;;;;39.83;27.55;;;;;;;15.18;86.51;101785.22;5022794;28;20033;-80
2021/09/17 01:01:12;;;;;;;41.58;27.80;;;;;;;15.13;86.78;101783.66;5023939;28;20036;-79
2021/09/17 01:03:38;;;;;;;41.40;26.98;;;;;;;15.15;86.86;101778.28;5029504;28;20053;-79
2021/09/17 01:06:03;;;;;;;43.83;27.45;;;;;;;15.04;87.42;101776.13;5023984;28;20076;-79
2021/09/17 01:08:30;;;;;;;41.25;27.45;;;;;;;15.12;86.87;101779.28;5008740;28;20063;-79
2021/09/17 01:10:57;;;;;;;43.97;28.25;;;;;;;15.12;86.85;101775.78;4993234;28;20030;-79
2021/09/17 01:13:23;;;;;;;45.65;29.42;;;;;;;15.10;86.72;101770.59;5008957;28;20053;-79
2021/09/17 01:15:49;;;;;;;48.10;30.02;;;;;;;15.01;87.46;101772.75;4992547;28;20030;-79
2021/09/17 01:18:15;;;;;;;42.72;27.95;;;;;;;14.98;87.63;101769.34;5004269;28;20070;-80
2021/09/17 01:20:40;;;;;;;44.78;28.35;;;;;;;15.09;86.88;101766.22;4981354;28;20029;-79
2021/09/17 01:23:06;;;;;;;46.13;28.08;;;;;;;15.15;87.08;101762.44;5009167;28;20056;-79
2021/09/17 01:25:31;;;;;;;43.67;27.35;;;;;;;15.13;87.13;101761.66;5003130;28;20061;-79
2021/09/17 01:27:57;;;;;;;39.67;26.75;;;;;;;15.22;86.80;101760.41;5008890;28;20355;-79
2021/09/17 01:30:23;;;;;;;42.08;27.40;;;;;;;15.26;86.64;101762.84;5011418;28;20343;-79
2021/09/17 01:32:48;;;;;;;44.45;28.40;;;;;;;15.18;87.29;101758.84;5010471;28;20032;-80
2021/09/17 01:35:16;;;;;;;44.25;28.48;;;;;;;15.19;87.31;101752.63;4999469;28;20046;-79
2021/09/17 01:37:42;;;;;;;45.17;28.30;;;;;;;15.19;86.97;101753.50;4990447;28;20080;-79
2021/09/17 01:40:08;;;;;;;41.17;28.90;;;;;;;15.08;87.44;101739.91;4984304;28;20022;-79
2021/09/17 01:42:33;;;;;;;42.10;27.92;;;;;;;15.09;87.71;101745.13;5009306;28;20034;-79
2021/09/17 01:44:59;;;;;;;46.55;27.75;;;;;;;15.14;87.73;101740.50;5001777;28;20311;-79
2021/09/17 01:47:25;;;;;;;46.97;28.88;;;;;;;15.12;87.31;101734.44;5025925;28;20396;-79
2021/09/17 01:49:51;;;;;;;47.72;28.67;;;;;;;15.19;87.26;101737.66;5044375;28;20025;-79
2021/09/17 01:52:16;;;;;;;41.97;28.27;;;;;;;15.07;87.74;101733.78;5027662;28;20059;-79
2021/09/17 01:54:42;;;;;;;42.00;27.15;;;;;;;15.13;86.82;101730.88;5028449;28;20045;-79
2021/09/17 01:57:07;;;;;;;39.28;27.33;;;;;;;15.20;86.39;101736.72;4988767;28;20029;-79
2021/09/17 01:59:33;;;;;;;45.13;29.02;;;;;;;15.32;86.09;101730.88;4993212;28;20025;-79
2021/09/17 02:01:59;;;;;;;39.60;27.85;;;;;;;15.36;86.34;101732.44;5005912;28;20025;-79
2021/09/17 02:04:24;;;;;;;41.85;27.67;;;;;;;15.53;84.97;101720.22;5013082;28;20291;-79
2021/09/17 02:06:50;;;;;;;41.42;27.25;;;;;;;15.70;83.96;101722.94;5032111;28;20041;-79
2021/09/17 02:09:15;;;;;;;39.42;28.38;;;;;;;15.69;84.59;101718.56;5019140;28;20329;-79
2021/09/17 02:11:41;;;;;;;48.10;30.92;;;;;;;15.56;85.26;101720.09;5028057;28;20340;-79
2021/09/17 02:14:06;;;;;;;46.95;30.27;;;;;;;15.51;85.27;101720.31;4992311;28;20033;-79
2021/09/17 02:16:32;;;;;;;50.25;31.70;;;;;;;15.69;84.53;101720.34;4999253;28;20341;-79
2021/09/17 02:18:58;;;;;;;49.92;32.42;;;;;;;15.68;84.65;101711.59;4993025;28;20045;-79
2021/09/17 02:21:23;;;;;;;59.53;35.30;;;;;;;15.71;84.50;101710.56;5025377;28;20081;-79
2021/09/17 02:23:49;;;;;;;52.83;34.10;;;;;;;15.69;84.32;101708.00;4992097;28;20045;-80
2021/09/17 02:26:15;;;;;;;59.00;37.55;;;;;;;15.67;84.64;101709.88;5000718;28;20072;-78
2021/09/17 02:28:41;;;;;;;60.00;36.45;;;;;;;15.79;84.02;101697.91;5007443;28;20036;-77
2021/09/17 02:31:06;;;;;;;65.80;39.45;;;;;;;15.80;84.28;101704.03;4976876;28;20137;-77
2021/09/17 02:33:32;;;;;;;73.65;40.80;;;;;;;15.74;84.49;101699.91;4991633;28;20040;-78
2021/09/17 02:35:58;;;;;;;67.88;39.95;;;;;;;15.65;85.26;101703.81;5006669;28;20074;-77
2021/09/17 02:38:23;;;;;;;74.65;44.45;;;;;;;15.72;84.97;101702.59;5003374;28;20119;-78
2021/09/17 02:40:49;;;;;;;82.53;45.33;;;;;;;15.73;84.94;101699.03;4988201;28;20042;-78
2021/09/17 02:43:15;;;;;;;84.38;47.28;;;;;;;15.78;84.73;101693.53;5007980;28;20061;-78
2021/09/17 02:45:40;;;;;;;83.07;46.28;;;;;;;15.72;85.17;101696.47;5044104;28;20256;-78
2021/09/17 02:48:06;;;;;;;82.05;47.58;;;;;;;15.69;85.12;101705.38;5020932;28;20049;-78
2021/09/17 02:50:32;;;;;;;81.35;48.03;;;;;;;15.74;85.41;101692.81;5005633;28;20437;-78
2021/09/17 02:52:57;;;;;;;81.20;45.20;;;;;;;15.74;85.06;101689.34;5025432;28;20032;-78
2021/09/17 02:55:23;;;;;;;82.93;48.95;;;;;;;15.85;84.72;101687.03;4990485;28;20030;-79
2021/09/17 02:57:48;;;;;;;81.65;47.28;;;;;;;15.84;84.80;101680.00;4995939;28;20166;-77
2021/09/17 03:00:14;;;;;;;93.18;49.28;;;;;;;15.85;84.91;101678.25;5020745;28;20042;-78
2021/09/17 03:02:40;;;;;;;82.20;47.97;;;;;;;15.92;84.85;101675.22;4994947;28;20022;-78
2021/09/17 03:05:06;;;;;;;80.60;46.03;;;;;;;15.84;85.20;101672.09;5033497;28;20053;-78
2021/09/17 03:07:31;;;;;;;72.57;41.40;;;;;;;15.82;84.84;101668.69;5007643;28;20044;-78
2021/09/17 03:09:57;;;;;;;68.30;39.63;;;;;;;15.73;85.41;101661.19;5013667;28;20033;-78
2021/09/17 03:12:22;;;;;;;63.63;37.67;;;;;;;15.76;85.29;101671.63;4994257;28;20033;-78
2021/09/17 03:14:48;;;;;;;77.80;41.08;;;;;;;15.74;85.76;101660.28;5011239;28;20029;-78
2021/09/17 03:17:13;;;;;;;72.78;41.42;;;;;;;15.91;84.89;101657.66;5022208;28;20029;-81
2021/09/17 03:19:39;;;;;;;63.28;39.00;;;;;;;16.00;84.19;101655.50;5008695;28;20025;-78
2021/09/17 03:22:05;;;;;;;81.75;44.95;;;;;;;15.94;85.08;101654.03;5021067;28;20033;-77
2021/09/17 03:24:30;;;;;;;74.80;43.92;;;;;;;15.93;84.83;101655.81;5002327;28;20391;-77
2021/09/17 03:26:56;;;;;;;84.13;47.35;;;;;;;15.97;85.05;101653.00;5008016;28;20344;-77
2021/09/17 03:29:21;;;;;;;80.20;46.05;;;;;;;15.96;85.05;101648.66;5002681;28;20341;-78
2021/09/17 03:31:47;;;;;;;90.10;49.90;;;;;;;15.93;85.52;101649.66;4973617;28;20033;-77
2021/09/17 03:34:14;;;;;;;86.65;49.28;;;;;;;15.94;85.70;101654.03;5026559;28;20041;-78
2021/09/17 03:36:43;;;;;;;94.18;51.15;;;;;;;15.90;86.11;101645.41;5034089;28;20033;-78
2021/09/17 03:39:17;;;;;;;96.00;50.83;;;;;;;15.91;85.76;101649.72;5006545;28;20236;-77
2021/09/17 03:41:45;;;;;;;97.10;50.78;;;;;;;15.88;85.93;101649.91;5017708;28;20037;-78
2021/09/17 03:44:11;;;;;;;91.10;49.22;;;;;;;15.91;85.84;101649.72;4991138;28;20033;-78
2021/09/17 03:46:37;;;;;;;79.30;43.22;;;;;;;16.01;84.10;101651.91;4974076;28;20026;-77
2021/09/17 03:49:02;;;;;;;87.60;48.30;;;;;;;15.90;85.62;101648.03;4980359;28;20284;-77
2021/09/17 03:51:28;;;;;;;87.25;46.95;;;;;;;16.01;85.12;101643.97;5005061;28;20025;-78
2021/09/17 03:53:53;;;;;;;89.18;48.30;;;;;;;15.98;85.03;101646.78;4989957;28;20218;-77
2021/09/17 03:56:19;;;;;;;90.82;48.03;;;;;;;16.03;84.70;101642.13;5005377;28;20056;-78
2021/09/17 03:58:44;;;;;;;88.85;47.28;;;;;;;16.03;84.99;101642.97;5006470;28;20041;-78
2021/09/17 04:01:10;;;;;;;100.65;51.83;;;;;;;15.94;85.54;101643.44;5001289;28;20029;-78
2021/09/17 04:03:35;;;;;;;89.43;48.28;;;;;;;15.95;85.70;101637.22;4989727;28;20033;-77
2021/09/17 04:06:01;;;;;;;87.22;47.30;;;;;;;15.95;85.57;101636.38;4992218;28;20025;-77
2021/09/17 04:08:27;;;;;;;96.65;49.72;;;;;;;15.97;85.66;101630.09;5005255;28;20221;-77
2021/09/17 04:10:52;;;;;;;89.95;48.28;;;;;;;15.96;85.66;101630.16;5001630;28;20252;-77
2021/09/17 04:13:18;;;;;;;97.82;51.20;;;;;;;15.97;85.22;101632.75;5023565;28;20025;-78
2021/09/17 04:15:43;;;;;;;98.28;51.50;;;;;;;15.93;85.11;101632.03;5009235;28;20032;-78
2021/09/17 04:18:09;;;;;;;97.70;51.50;;;;;;;15.86;85.97;101635.03;5009326;28;20032;-77
2021/09/17 04:20:35;;;;;;;101.47;51.70;;;;;;;15.90;85.61;101637.47;5042204;28;20026;-77
2021/09/17 04:23:00;;;;;;;93.25;49.03;;;;;;;15.87;86.06;101631.47;5005802;28;20034;-79
2021/09/17 04:25:28;;;;;;;96.53;52.08;;;;;;;15.97;85.43;101634.50;5005652;28;20030;-79
2021/09/17 04:27:53;;;;;;;96.93;51.03;;;;;;;15.96;85.37;101638.94;4990489;28;20340;-79
2021/09/17 04:30:19;;;;;;;101.93;50.28;;;;;;;15.94;85.18;101643.44;4975953;28;20080;-79
2021/09/17 04:32:44;;;;;;;93.60;49.17;;;;;;;15.93;85.25;101639.09;5023683;28;20041;-80
2021/09/17 04:35:11;;;;;;;96.90;50.13;;;;;;;15.91;84.51;101636.53;5024772;28;20236;-79
2021/09/17 04:37:44;;;;;;;85.70;47.35;;;;;;;16.02;84.58;101633.34;4982063;28;20026;-79
2021/09/17 04:40:11;;;;;;;100.95;51.08;;;;;;;16.03;84.80;101636.84;5008757;28;20034;-80
2021/09/17 04:42:36;;;;;;;90.60;50.15;;;;;;;15.88;85.49;101641.09;5032254;28;20057;-79
2021/09/17 04:45:03;;;;;;;96.45;50.80;;;;;;;15.94;84.67;101638.16;5011039;28;20038;-79
2021/09/17 04:47:28;;;;;;;96.20;50.75;;;;;;;15.76;85.49;101637.31;5008175;28;20100;-80
2021/09/17 04:49:54;;;;;;;99.47;50.65;;;;;;;15.80;86.15;101645.94;5000104;28;20084;-79
2021/09/17 04:52:21;;;;;;;91.95;47.13;;;;;;;15.89;84.68;101635.75;5009825;28;20034;-79
2021/09/17 04:54:47;;;;;;;86.80;47.72;;;;;;;15.98;84.16;101636.22;4991810;28;20084;-79
2021/09/17 04:57:13;;;;;;;82.47;44.92;;;;;;;15.87;84.69;101642.06;4984881;28;20053;-79
2021/09/17 04:59:39;;;;;;;94.72;48.92;;;;;;;15.92;84.18;101640.88;4979519;28;20025;-79
2021/09/17 05:02:04;;;;;;;90.07;47.13;;;;;;;15.98;83.83;101633.59;5021013;28;20036;-79
2021/09/17 05:04:30;;;;;;;89.47;46.83;;;;;;;15.87;84.08;101636.75;5008644;28;20036;-79
2021/09/17 05:06:56;;;;;;;79.43;41.72;;;;;;;16.07;82.40;101641.03;5016120;28;20025;-79
2021/09/17 05:09:21;;;;;;;89.00;48.05;;;;;;;16.16;81.98;101637.09;5003810;28;20046;-79
2021/09/17 05:11:47;;;;;;;56.55;32.60;;;;;;;16.34;79.81;101640.56;5002233;28;20152;-80
2021/09/17 05:14:13;;;;;;;82.45;46.58;;;;;;;15.92;83.55;101640.88;5001259;28;20025;-79
2021/09/17 05:16:38;;;;;;;56.35;31.25;;;;;;;16.35;81.18;101639.59;5001838;28;20029;-80
2021/09/17 05:19:04;;;;;;;56.72;33.55;;;;;;;16.65;79.19;101637.16;5040337;28;20048;-80
2021/09/17 05:21:29;;;;;;;71.00;40.20;;;;;;;16.38;80.51;101640.31;5000182;28;20056;-79
2021/09/17 05:23:55;;;;;;;74.55;42.55;;;;;;;16.45;80.56;101644.34;5018869;28;20213;-79
2021/09/17 05:26:20;;;;;;;67.10;37.67;;;;;;;16.66;79.15;101636.19;5036180;28;20029;-79
2021/09/17 05:28:46;;;;;;;80.45;42.50;;;;;;;16.41;80.73;101642.78;5032516;28;20051;-79
2021/09/17 05:31:11;;;;;;;63.90;37.35;;;;;;;16.51;79.31;101637.88;5017637;28;20032;-79
2021/09/17 05:33:37;;;;;;;71.72;41.63;;;;;;;16.29;81.20;101638.16;5016232;28;20262;-79
2021/09/17 05:36:03;;;;;;;80.70;44.03;;;;;;;16.05;82.33;101637.63;5029447;28;20044;-80
2021/09/17 05:38:29;;;;;;;84.32;46.55;;;;;;;15.86;83.40;101635.03;5032021;28;20050;-79
2021/09/17 05:40:54;;;;;;;74.75;40.70;;;;;;;16.08;81.70;101638.31;4997806;28;20080;-79
2021/09/17 05:43:20;;;;;;;67.55;38.85;;;;;;;16.14;81.83;101631.03;5011946;28;20045;-79
2021/09/17 05:45:45;;;;;;;65.45;38.55;;;;;;;16.14;81.91;101631.03;5033422;28;20040;-79
2021/09/17 05:48:14;;;;;;;79.28;44.30;;;;;;;16.21;81.08;101641.19;5045158;28;20051;-80
2021/09/17 05:50:39;;;;;;;84.15;45.80;;;;;;;15.91;83.42;101646.25;5001565;28;20030;-79
2021/09/17 05:53:05;;;;;;;85.85;46.65;;;;;;;15.92;82.52;101638.25;5020084;28;20333;-80
2021/09/17 05:55:30;;;;;;;70.97;41.58;;;;;;;16.33;81.08;101639.69;5019779;28;20037;-80
2021/09/17 05:57:56;;;;;;;82.07;45.58;;;;;;;15.97;82.94;101638.03;5018620;28;20265;-80
2021/09/17 06:00:22;;;;;;;71.18;42.10;;;;;;;16.41;80.32;101641.91;5022235;28;20032;-79
2021/09/17 06:02:47;;;;;;;80.88;46.03;;;;;;;16.18;82.10;101636.06;5003980;28;20033;-79
2021/09/17 06:05:13;;;;;;;81.97;44.53;;;;;;;16.18;82.51;101645.78;5013805;28;20045;-79
2021/09/17 06:07:43;;;;;;;88.75;46.67;;;;;;;16.18;82.12;101643.97;5005179;28;20048;-80
2021/09/17 06:10:09;;;;;;;61.70;36.17;;;;;;;16.41;81.10;101640.16;5026183;28;20044;-79
2021/09/17 06:12:35;;;;;;;75.47;44.15;;;;;;;16.45;81.04;101638.19;5066522;28;20037;-80
2021/09/17 06:15:00;;;;;;;68.90;38.58;;;;;;;16.34;81.32;101648.50;5016463;28;20048;-79
2021/09/17 06:17:26;;;;;;;43.88;24.75;;;;;;;16.89;77.85;101641.13;5025452;28;20033;-79
2021/09/17 06:19:51;;;;;;;78.15;46.35;;;;;;;16.68;80.43;101647.53;5045930;28;20045;-80
2021/09/17 06:22:17;;;;;;;85.30;46.33;;;;;;;16.82;79.58;101641.50;5028453;28;20038;-80
2021/09/17 06:24:42;;;;;;;79.55;46.70;;;;;;;16.81;79.92;101647.75;5027330;28;20037;-79
2021/09/17 06:27:08;;;;;;;72.80;42.10;;;;;;;17.11;77.84;101647.88;5027394;28;20087;-80
2021/09/17 06:29:33;;;;;;;71.50;41.22;;;;;;;17.14;78.21;101646.88;5026580;28;20061;-79
2021/09/17 06:31:59;;;;;;;51.28;30.08;;;;;;;17.27;77.13;101647.91;5011439;28;20340;-79
2021/09/17 06:34:25;;;;;;;72.03;43.17;;;;;;;17.49;77.29;101644.03;5006606;28;20049;-79
2021/09/17 06:36:50;;;;;;;73.47;42.08;;;;;;;17.22;78.02;101642.84;5025374;28;20034;-79
2021/09/17 06:39:17;;;;;;;80.97;46.15;;;;;;;17.24;78.36;101645.41;5011032;28;20092;-80
2021/09/17 06:41:43;;;;;;;81.38;48.08;;;;;;;17.25;79.42;101642.69;5010044;28;20060;-80
2021/09/17 06:44:09;;;;;;;48.83;30.27;;;;;;;17.46;76.23;101650.34;5009029;28;20034;-79
2021/09/17 06:46:34;;;;;;;84.70;47.17;;;;;;;17.36;78.87;101644.72;5038609;28;20045;-78
2021/09/17 06:49:00;;;;;;;81.95;45.85;;;;;;;17.37;78.51;101649.09;5022423;28;20029;-78
2021/09/17 06:51:26;;;;;;;79.97;45.58;;;;;;;17.41;78.37;101655.91;5004483;28;20229;-78
2021/09/17 06:53:51;;;;;;;75.13;43.22;;;;;;;17.50;77.57;101643.09;4987831;28;20045;-77
2021/09/17 06:56:17;;;;;;;54.22;30.40;;;;;;;17.93;75.38;101648.56;4991339;28;20057;-78
2021/09/17 06:58:43;;;;;;;11.90;8.27;;;;;;;18.12;71.63;101651.84;5023256;28;20052;-78
2021/09/17 07:01:09;;;;;;;78.20;46.20;;;;;;;17.78;77.13;101648.50;5005018;28;20349;-77
2021/09/17 07:03:34;;;;;;;83.05;47.30;;;;;;;17.51;78.98;101656.25;5003920;28;20333;-79
2021/09/17 07:06:00;;;;;;;56.42;31.45;;;;;;;18.56;72.10;101648.31;4997854;28;20042;-78
2021/09/17 07:08:25;;;;;;;55.38;33.95;;;;;;;18.61;70.56;101646.22;5013931;28;20121;-79
2021/09/17 07:10:51;;;;;;;76.13;41.55;;;;;;;18.25;74.08;101649.31;5022059;28;20045;-78
2021/09/17 07:13:17;;;;;;;49.15;29.00;;;;;;;18.52;70.60;101643.25;5011949;28;20032;-79
2021/09/17 07:15:43;;;;;;;61.83;35.67;;;;;;;18.48;71.13;101649.72;4995148;28;20032;-79
2021/09/17 07:18:09;;;;;;;47.38;25.70;;;;;;;18.41;72.81;101650.09;5014789;28;20037;-79
2021/09/17 07:20:35;;;;;;;76.60;45.22;;;;;;;18.13;74.65;101642.09;5028762;28;20091;-80
2021/09/17 07:23:00;;;;;;;59.47;33.13;;;;;;;18.55;72.19;101643.09;4997847;28;20030;-79
2021/09/17 07:25:26;;;;;;;66.05;41.72;;;;;;;18.53;75.16;101639.69;5000283;28;20092;-79
2021/09/17 07:27:52;;;;;;;59.00;32.08;;;;;;;18.75;71.49;101641.84;4998324;28;20088;-79
2021/09/17 07:30:19;;;;;;;63.47;38.15;;;;;;;18.80;72.38;101637.94;5017027;28;20339;-79
2021/09/17 07:32:45;;;;;;;34.70;18.38;;;;;;;19.24;69.80;101635.25;4985460;28;20040;-79
2021/09/17 07:35:12;;;;;;;39.75;16.98;;;;;;;19.72;67.53;101630.34;5007142;28;20059;-79
2021/09/17 07:37:37;;;;;;;77.38;46.45;;;;;;;18.93;73.80;101637.22;5021461;28;20027;-79
2021/09/17 07:40:04;;;;;;;65.03;35.88;;;;;;;19.44;70.18;101637.47;4994227;28;20053;-80
2021/09/17 07:42:30;;;;;;;38.08;20.55;;;;;;;19.31;69.77;101634.75;4978986;28;20045;-79
2021/09/17 07:44:55;;;;;;;34.53;17.33;;;;;;;19.78;67.87;101632.63;5013604;28;20041;-80
2021/09/17 07:47:21;;;;;;;56.50;34.55;;;;;;;19.96;69.47;101637.66;5004536;28;20049;-79
2021/09/17 07:49:46;;;;;;;54.22;32.75;;;;;;;20.55;65.64;101640.63;5006115;28;20093;-79
2021/09/17 07:52:12;;;;;;;16.98;7.15;;;;;;;21.22;62.73;101634.97;4994478;28;20201;-78
2021/09/17 07:54:37;;;;;;;72.57;43.15;;;;;;;21.45;63.80;101633.31;5005262;28;20341;-79
2021/09/17 07:57:03;;;;;;;59.85;31.10;;;;;;;21.57;61.83;101633.38;5010279;28;20390;-80
2021/09/17 07:59:29;;;;;;;84.57;49.90;;;;;;;21.21;65.01;101643.06;5005268;28;20030;-80
2021/09/17 08:01:55;;;;;;;88.97;47.70;;;;;;;20.88;65.30;101648.09;4999774;28;20017;-80
2021/09/17 08:04:20;;;;;;;29.38;10.00;;;;;;;21.31;62.95;101651.28;4991436;28;20041;-79
2021/09/17 08:06:46;;;;;;;93.28;53.58;;;;;;;20.71;66.36;101645.78;4997799;28;20439;-78
2021/09/17 08:09:12;;;;;;;23.55;10.48;;;;;;;21.28;63.15;101647.00;5006853;28;20037;-79
2021/09/17 08:11:38;;;;;;;78.60;43.35;;;;;;;21.36;63.50;101649.13;4981755;28;20041;-79
2021/09/17 08:14:03;;;;;;;55.05;34.00;;;;;;;21.71;63.44;101645.66;4992296;28;20176;-79
2021/09/17 08:16:29;;;;;;;78.75;44.75;;;;;;;22.07;61.33;101647.38;5006505;28;20029;-79
2021/09/17 08:18:54;;;;;;;24.10;13.35;;;;;;;22.32;59.61;101650.81;4995686;28;20044;-79
2021/09/17 08:21:20;;;;;;;30.77;19.23;;;;;;;22.47;60.01;101641.63;5018213;28;20027;-80
2021/09/17 08:23:46;;;;;;;26.80;13.93;;;;;;;22.70;58.57;101652.31;5010650;28;20290;-79
2021/09/17 08:26:14;;;;;;;69.93;42.28;;;;;;;22.67;59.77;101649.91;5009099;28;20284;-77
2021/09/17 08:28:40;;;;;;;64.90;39.67;;;;;;;22.78;59.55;101663.22;4996004;28;20038;-77
2021/09/17 08:31:07;;;;;;;39.05;23.45;;;;;;;23.26;58.77;101657.59;5032093;28;20068;-78
2021/09/17 08:33:32;;;;;;;82.43;46.38;;;;;;;22.88;60.69;101660.66;5008547;28;20048;-77
2021/09/17 08:35:59;;;;;;;66.68;41.45;;;;;;;22.53;59.92;101665.16;5024006;28;20038;-76
2021/09/17 08:38:24;;;;;;;78.57;46.38;;;;;;;22.42;61.76;101660.66;4995682;28;20029;-77
2021/09/17 08:40:53;;;;;;;59.40;35.28;;;;;;;22.35;61.26;101666.59;5013952;28;20391;-76
2021/09/17 08:43:20;;;;;;;69.85;43.47;;;;;;;22.36;61.29;101663.81;5017850;28;20493;-76
2021/09/17 08:45:46;;;;;;;69.28;42.75;;;;;;;22.25;61.29;101661.09;5014878;28;20030;-78
2021/09/17 08:48:15;;;;;;;64.53;36.20;;;;;;;22.57;61.23;101665.78;5037464;28;20044;-77
2021/09/17 08:50:40;;;;;;;53.13;20.33;;;;;;;22.65;60.13;101666.03;5017462;28;20052;-78
2021/09/17 08:53:06;;;;;;;70.40;42.50;;;;;;;22.44;60.78;101668.56;5007608;28;20229;-76
2021/09/17 08:55:32;;;;;;;55.80;26.15;;;;;;;22.74;60.25;101675.97;5018691;28;20032;-76
2021/09/17 08:57:57;;;;;;;39.45;14.18;;;;;;;23.45;58.09;101675.66;5008549;28;20025;-76
2021/09/17 09:00:35;;;;;;;46.08;24.20;;;;;;;23.51;57.44;101667.13;4994285;28;20040;-77
2021/09/17 09:03:01;;;;;;;41.72;12.45;;;;;;;24.09;55.71;101666.78;5027340;28;20057;-78
2021/09/17 09:05:31;;;;;;;56.65;29.95;;;;;;;24.26;54.87;101668.00;4992244;28;20021;-76
2021/09/17 09:07:57;;;;;;;56.08;14.10;;;;;;;24.49;54.20;101674.03;5029129;28;20030;-77
2021/09/17 09:10:23;;;;;;;53.75;30.67;;;;;;;24.43;55.46;101673.72;5005645;28;20029;-76
2021/09/17 09:12:50;;;;;;;48.00;16.27;;;;;;;24.43;55.02;101674.59;4991678;28;20044;-77
2021/09/17 09:15:26;;;;;;;54.13;27.27;;;;;;;24.98;52.99;101676.97;4982399;28;20122;-77
2021/09/17 09:17:58;;;;;;;42.22;19.77;;;;;;;24.33;54.68;101673.69;4983538;28;20224;-78
2021/09/17 09:20:40;;;;;;;33.10;14.57;;;;;;;23.80;56.63;101668.41;5007064;28;20030;-77
2021/09/17 09:23:15;;;;;;;61.35;15.88;;;;;;;25.04;53.08;101667.53;5015579;28;20033;-77
2021/09/17 09:26:01;;;;;;;41.83;25.67;;;;;;;26.02;50.53;101676.56;5018947;28;20175;-77
2021/09/17 09:28:29;;;;;;;37.88;18.90;;;;;;;23.60;55.97;101670.88;5010688;28;20037;-77
2021/09/17 09:30:55;;;;;;;;;;;;;;;23.54;56.58;101672.22;5020505;28;20056;-77
2021/09/17 09:33:21;;;;;;;52.97;21.65;;;;;;;23.51;57.20;101671.63;5011860;28;19985;-77
2021/09/17 09:35:54;;;;;;;48.17;20.77;;;;;;;23.44;57.32;101671.28;5037974;28;20305;-77
2021/09/17 09:38:34;;;;;;;48.47;21.20;;;;;;;23.48;58.08;101677.22;5004665;28;20038;-77
2021/09/17 09:41:00;;;;;;;60.10;20.67;;;;;;;23.30;58.87;101664.41;5016191;28;20037;-76
2021/09/17 09:43:36;;;;;;;65.43;21.90;;;;;;;24.76;54.85;101671.78;4998469;28;20101;-76
2021/09/17 09:46:20;;;;;;;69.20;19.48;;;;;;;25.68;51.96;101676.94;4993808;28;20045;-76
2021/09/17 09:49:27;;;;;;;56.55;19.02;;;;;;;25.02;53.22;101672.19;5016397;28;20021;-77
2021/09/17 09:51:59;;;;;;;44.47;18.17;;;;;;;24.72;54.95;101676.56;5017431;28;20045;-77
2021/09/17 09:54:29;;;;;;;64.40;18.15;;;;;;;24.87;54.49;101669.88;5005425;28;20026;-76
2021/09/17 09:56:55;;;;;;;42.85;18.10;;;;;;;25.87;51.83;101668.06;4985054;28;20033;-77
2021/09/17 09:59:26;;;;;;;57.75;16.40;;;;;;;26.70;49.61;101667.47;4983739;28;20092;-77
2021/09/17 10:01:52;;;;;;;55.33;16.67;;;;;;;26.64;49.84;101662.72;5007132;28;20036;-76
2021/09/17 10:04:18;;;;;;;44.40;16.10;;;;;;;26.48;49.93;101666.81;4993469;28;20097;-77
2021/09/17 10:06:43;;;;;;;27.85;14.82;;;;;;;26.95;48.89;101665.94;4994470;28;20033;-77
2021/09/17 10:09:10;;;;;;;26.13;15.32;;;;;;;27.51;47.67;101672.13;4993644;28;20037;-77
2021/09/17 10:11:36;;;;;;;22.27;15.15;;;;;;;26.66;49.05;101655.34;5002794;28;20018;-77
2021/09/17 10:14:03;;;;;;;24.00;13.15;;;;;;;24.97;54.08;101661.84;4996672;28;20041;-78
2021/09/17 10:16:30;;;;;;;51.03;13.68;;;;;;;26.05;50.24;101668.22;5015707;28;20091;-77
2021/09/17 10:18:55;;;;;;;31.88;13.05;;;;;;;26.13;51.63;101670.19;4989562;28;20108;-77
2021/09/17 10:21:51;;;;;;;28.67;14.18;;;;;;;24.85;54.63;101669.16;5005796;28;20017;-77
2021/09/17 10:24:26;;;;;;;34.15;13.45;;;;;;;25.35;53.86;101667.47;5014623;28;20123;-77
2021/09/17 10:27:20;;;;;;;34.08;12.07;;;;;;;25.17;53.66;101661.91;5029597;28;20056;-76
2021/09/17 10:29:53;;;;;;;49.35;12.40;;;;;;;25.63;52.51;101663.09;4994789;28;20029;-78
2021/09/17 10:32:41;;;;;;;32.55;12.02;;;;;;;26.26;50.71;101664.50;5002241;28;20029;-78
2021/09/17 10:35:10;;;;;;;;;;;;;;;27.04;48.42;101662.34;5003608;28;20406;-76
2021/09/17 10:37:59;;;;;;;30.35;11.60;;;;;;;26.86;48.75;101651.56;5022128;28;19913;-77
2021/09/17 10:40:42;;;;;;;26.10;10.90;;;;;;;25.62;51.04;101658.75;4996991;28;20079;-79
2021/09/17 10:43:10;;;;;;;30.35;10.82;;;;;;;23.91;55.47;101653.13;5011765;28;20056;-79
2021/09/17 10:45:42;;;;;;;19.13;9.43;;;;;;;23.11;57.68;101653.53;5015631;28;20029;-79
2021/09/17 10:48:09;;;;;;;17.50;10.60;;;;;;;22.83;58.25;101658.38;5007606;28;20037;-78
2021/09/17 10:50:57;;;;;;;12.35;8.73;;;;;;;23.21;57.19;101653.59;4980608;28;20107;-78
2021/09/17 10:53:41;;;;;;;12.15;9.15;;;;;;;24.98;51.86;101654.69;4973658;28;20026;-78
2021/09/17 10:56:16;;;;;;;12.02;7.95;;;;;;;24.68;52.13;101649.19;5035097;28;20079;-79
2021/09/17 10:58:46;;;;;;;16.20;7.78;;;;;;;24.42;52.75;101643.44;4997212;28;20029;-78
2021/09/17 11:01:12;;;;;;;10.93;6.88;;;;;;;24.31;53.27;101647.03;4992379;28;20044;-79
2021/09/17 11:03:40;;;;;;;7.55;6.82;;;;;;;24.44;52.53;101648.66;5015756;28;20033;-79
2021/09/17 11:06:21;;;;;;;7.70;6.32;;;;;;;24.89;51.53;101651.81;5006388;28;20029;-79
2021/09/17 11:08:56;;;;;;;7.13;5.15;;;;;;;23.66;54.72;101651.63;5028846;28;20037;-79